Time;durP1;ratioP1;P1;durP2;ratioP2;P2;SDS_P1;SDS_P2;PMS_P1;PMS_P2;Temp;Humidity;BMP_temperature;BMP_pressure;BME280_temperature;BME280_humidity;BME280_pressure;Samples;Min_cycle;Max_cycle;Signal;HPM_P1;HPM_P2
2023/01/15 00:02:07;;;;;;;0.53;0.53;;;10.20;99.50;;;;;;5015180;28;20465;-87
2023/01/15 00:04:53;;;;;;;2.57;0.70;;;10.10;99.50;;;;;;5033175;28;20457;-87
2023/01/15 00:07:36;;;;;;;0.80;0.47;;;10.10;99.40;;;;;;5020130;28;20488;-88
2023/01/15 00:10:31;;;;;;;1.13;0.87;;;10.00;99.20;;;;;;5012789;28;20444;-88
2023/01/15 00:13:18;;;;;;;2.70;0.63;;;10.00;99.20;;;;;;5015619;28;20445;-88
2023/01/15 00:15:51;;;;;;;0.70;0.70;;;9.90;99.80;;;;;;5031088;28;20465;-88
2023/01/15 00:18:49;;;;;;;2.07;0.90;;;9.90;99.90;;;;;;5027753;28;20523;-90
2023/01/15 00:21:31;;;;;;;0.77;0.60;;;9.90;99.90;;;;;;4999540;28;20507;-90
2023/01/15 00:30:20;;;;;;;2.97;1.00;;;10.00;99.80;;;;;;5026608;28;20461;-87
2023/01/15 00:33:08;;;;;;;3.10;1.00;;;9.80;99.90;;;;;;5012483;28;20481;-88
2023/01/15 00:36:11;;;;;;;1.30;0.60;;;9.70;99.90;;;;;;5017314;28;20432;-88
2023/01/15 00:38:45;;;;;;;2.53;1.30;;;9.70;99.90;;;;;;5021863;28;20491;-88
2023/01/15 00:41:35;;;;;;;;;;;;;;;;;;;;;
2023/01/15 00:44:40;;;;;;;2.07;0.60;;;9.70;99.90;;;;;;4907245;29;20473;-88
2023/01/15 00:47:53;;;;;;;1.87;0.90;;;9.70;99.90;;;;;;4904721;29;20490;-87
2023/01/15 00:50:51;;;;;;;0.60;0.60;;;9.70;99.90;;;;;;4906850;29;20480;-87
2023/01/15 00:53:53;;;;;;;4.80;2.50;;;9.70;99.90;;;;;;4901722;29;20478;-87
2023/01/15 00:57:21;;;;;;;2.03;0.80;;;9.60;99.90;;;;;;4900199;29;20539;-88
2023/01/15 01:00:05;;;;;;;5.13;0.90;;;9.70;99.90;;;;;;4906024;29;20512;-87
2023/01/15 01:02:37;;;;;;;3.70;0.90;;;9.60;99.90;;;;;;4976702;28;20537;-90
2023/01/15 01:05:10;;;;;;;0.60;0.50;;;9.60;99.90;;;;;;5009668;28;20470;-88
2023/01/15 01:07:43;;;;;;;2.67;0.80;;;9.50;99.90;;;;;;5027241;28;20473;-86
2023/01/15 01:10:30;;;;;;;1.20;0.60;;;9.40;99.90;;;;;;5009238;28;21160;-86
2023/01/15 01:13:15;;;;;;;1.27;0.70;;;9.50;99.90;;;;;;5029482;28;20460;-88
2023/01/15 01:15:56;;;;;;;2.10;0.90;;;9.40;99.90;;;;;;5022004;28;20469;-89
2023/01/15 01:18:43;;;;;;;2.53;0.90;;;9.50;99.90;;;;;;5020306;28;20484;-89
2023/01/15 01:21:20;;;;;;;1.17;0.70;;;9.70;99.90;;;;;;5014044;28;20485;-87
2023/01/15 01:24:04;;;;;;;0.70;0.60;;;9.80;99.90;;;;;;5022953;28;20484;-88
2023/01/15 01:26:42;;;;;;;0.50;0.50;;;10.00;98.50;;;;;;5017004;28;20480;-91
2023/01/15 01:29:28;;;;;;;1.13;0.60;;;10.00;97.60;;;;;;5014197;28;20460;-88
2023/01/15 01:32:08;;;;;;;1.47;0.60;;;9.90;98.40;;;;;;5025722;28;20457;-87
2023/01/15 01:34:57;;;;;;;0.50;0.50;;;9.80;98.50;;;;;;5011007;28;20461;-88
2023/01/15 01:38:18;;;;;;;1.00;0.57;;;9.70;98.90;;;;;;5009114;28;20465;-87
2023/01/15 01:41:06;;;;;;;1.03;0.40;;;9.50;98.90;;;;;;4995796;28;20481;-89
2023/01/15 01:44:29;;;;;;;2.70;0.40;;;9.40;99.40;;;;;;5013079;28;20999;-87
2023/01/15 01:47:33;;;;;;;0.80;0.50;;;9.60;98.70;;;;;;4999487;28;20458;-89
2023/01/15 01:50:14;;;;;;;0.90;0.53;;;9.40;98.10;;;;;;5010541;28;20500;-87
2023/01/15 01:53:05;;;;;;;3.07;0.53;;;9.30;98.50;;;;;;5020013;28;20511;-87
2023/01/15 01:55:47;;;;;;;1.00;0.90;;;9.30;98.40;;;;;;5006640;28;20430;-88
2023/01/15 01:58:53;;;;;;;1.33;0.60;;;9.30;98.40;;;;;;5009648;28;20817;-88
2023/01/15 02:01:28;;;;;;;0.60;0.60;;;9.30;98.40;;;;;;5007441;28;20552;-89
2023/01/15 02:04:21;;;;;;;2.50;1.83;;;9.30;98.30;;;;;;5007950;28;20468;-89
2023/01/15 02:07:18;;;;;;;3.63;1.50;;;9.20;98.70;;;;;;5009030;28;20552;-88
2023/01/15 02:09:52;;;;;;;1.60;0.40;;;9.10;99.30;;;;;;5007697;28;20465;-88
2023/01/15 02:12:35;;;;;;;0.80;0.77;;;9.10;99.50;;;;;;5009312;28;20465;-88
2023/01/15 02:15:37;;;;;;;1.50;0.43;;;9.10;99.60;;;;;;5006246;28;21277;-88
2023/01/15 02:18:30;;;;;;;1.00;0.60;;;9.10;99.30;;;;;;5008238;28;20511;-89
2023/01/15 02:21:30;;;;;;;0.30;0.30;;;9.20;98.70;;;;;;5021615;28;20561;-87
2023/01/15 02:24:51;;;;;;;1.03;0.40;;;9.30;98.00;;;;;;5022396;28;20585;-88
2023/01/15 02:27:23;;;;;;;1.67;0.60;;;9.70;96.90;;;;;;4953908;28;20473;-87
2023/01/15 02:30:38;;;;;;;0.70;0.40;;;9.50;96.90;;;;;;5010018;28;20484;-87
2023/01/15 02:33:35;;;;;;;3.50;0.50;;;9.50;97.10;;;;;;5013488;28;20469;-88
2023/01/15 02:36:06;;;;;;;0.60;0.43;;;9.30;97.30;;;;;;5009820;28;20472;-89
2023/01/15 02:38:58;;;;;;;2.10;1.70;;;9.30;97.70;;;;;;5009135;28;20465;-88
2023/01/15 02:41:59;;;;;;;2.23;0.40;;;9.20;97.70;;;;;;5010091;28;20529;-87
2023/01/15 02:44:44;;;;;;;0.73;0.40;;;9.30;97.40;;;;;;5005948;28;20480;-89
2023/01/15 02:47:18;;;;;;;3.90;0.80;;;9.50;97.10;;;;;;5009196;28;20481;-87
2023/01/15 02:49:55;;;;;;;0.80;0.40;;;9.30;97.30;;;;;;5008847;28;20463;-90
2023/01/15 02:52:53;;;;;;;0.40;0.40;;;9.40;97.30;;;;;;5007891;28;20457;-90
2023/01/15 02:55:32;;;;;;;1.40;0.53;;;9.20;97.60;;;;;;5006727;28;20791;-88
2023/01/15 02:58:25;;;;;;;1.47;0.57;;;9.40;97.60;;;;;;5027492;28;20468;-89
2023/01/15 03:01:37;;;;;;;0.40;0.30;;;9.20;97.30;;;;;;5012349;28;20488;-90
2023/01/15 03:04:19;;;;;;;0.40;0.40;;;9.40;97.60;;;;;;5029224;28;20589;-88
2023/01/15 03:07:29;;;;;;;0.50;0.40;;;9.40;97.20;;;;;;5010895;28;20489;-90
2023/01/15 03:10:16;;;;;;;0.87;0.60;;;9.30;97.30;;;;;;4993676;28;20657;-88
2023/01/15 03:13:03;;;;;;;1.00;0.60;;;9.20;97.60;;;;;;5017886;28;20472;-88
2023/01/15 03:19:05;;;;;;;1.13;0.40;;;9.20;98.40;;;;;;5029686;28;20471;-89
2023/01/15 03:21:54;;;;;;;1.20;0.43;;;9.40;98.10;;;;;;5026481;28;20493;-89
2023/01/15 03:25:10;;;;;;;1.23;0.53;;;9.20;97.80;;;;;;5012395;28;20472;-87
2023/01/15 03:28:01;;;;;;;1.83;0.67;;;9.20;98.40;;;;;;4967650;28;20485;-89
2023/01/15 03:30:45;;;;;;;1.03;0.40;;;9.10;98.30;;;;;;4973403;28;20477;-87
2023/01/15 03:33:18;;;;;;;2.50;0.60;;;9.30;97.50;;;;;;5025638;28;20461;-89
2023/01/15 03:35:57;;;;;;;1.27;0.50;;;9.30;96.70;;;;;;5009725;28;20464;-88
2023/01/15 03:38:35;;;;;;;1.10;0.63;;;9.20;96.60;;;;;;5025127;28;20508;-91
2023/01/15 03:41:11;;;;;;;0.80;0.50;;;9.30;96.70;;;;;;5027301;28;20473;-90
2023/01/15 03:43:51;;;;;;;2.90;0.70;;;9.40;96.00;;;;;;5016824;28;20475;-87
2023/01/15 03:46:49;;;;;;;1.17;1.00;;;9.60;95.40;;;;;;5012668;28;20457;-86
2023/01/15 03:49:49;;;;;;;0.93;0.50;;;9.30;95.00;;;;;;5013330;28;20560;-86
2023/01/15 03:52:25;;;;;;;2.90;0.47;;;9.30;95.00;;;;;;5041467;28;20475;-90
2023/01/15 03:55:04;;;;;;;1.90;0.40;;;9.40;95.00;;;;;;5045444;28;20460;-90
2023/01/15 03:57:41;;;;;;;2.40;0.60;;;9.40;94.40;;;;;;5047114;28;20536;-91
2023/01/15 04:00:18;;;;;;;0.50;0.50;;;9.40;94.70;;;;;;5031306;28;20441;-90
2023/01/15 04:03:02;;;;;;;0.90;0.60;;;9.40;95.10;;;;;;5025792;28;20564;-88
2023/01/15 04:05:45;;;;;;;1.60;0.53;;;9.30;94.90;;;;;;5015127;28;20514;-89
2023/01/15 04:08:15;;;;;;;1.60;0.60;;;9.10;95.20;;;;;;5011121;28;20485;-89
2023/01/15 04:11:00;;;;;;;1.13;0.60;;;9.30;95.50;;;;;;5012746;28;21751;-88
2023/01/15 04:13:30;;;;;;;1.30;0.60;;;9.20;95.20;;;;;;5028528;28;20469;-87
2023/01/15 04:16:01;;;;;;;1.33;0.40;;;9.40;94.90;;;;;;5011049;28;20516;-89
2023/01/15 04:18:33;;;;;;;1.27;0.50;;;9.40;94.80;;;;;;5011922;28;20488;-88
2023/01/15 04:21:14;;;;;;;1.00;0.57;;;9.10;95.30;;;;;;5013656;28;20586;-86
2023/01/15 04:23:43;;;;;;;0.90;0.60;;;9.20;95.50;;;;;;5010745;28;20545;-86
2023/01/15 04:26:17;;;;;;;2.90;0.90;;;9.20;95.30;;;;;;5013684;28;20457;-87
2023/01/15 04:28:44;;;;;;;1.00;0.47;;;9.40;94.80;;;;;;5031964;28;20485;-93
2023/01/15 04:31:14;;;;;;;3.30;0.60;;;9.20;95.00;;;;;;5018827;28;20462;-89
2023/01/15 04:33:44;;;;;;;2.30;0.70;;;9.40;95.10;;;;;;5008209;28;20469;-88
2023/01/15 04:36:13;;;;;;;2.10;1.00;;;9.20;95.10;;;;;;5008397;28;20979;-87
2023/01/15 04:38:46;;;;;;;1.60;0.90;;;9.00;95.50;;;;;;5026442;28;20479;-88
2023/01/15 04:44:09;;;;;;;4.53;1.00;;;9.10;96.40;;;;;;5025173;28;20495;-90
2023/01/15 04:46:56;;;;;;;0.70;0.60;;;9.30;95.80;;;;;;5006838;28;20534;-89
2023/01/15 04:49:28;;;;;;;3.37;0.80;;;9.20;96.00;;;;;;5007455;28;20469;-88
2023/01/15 04:52:06;;;;;;;1.47;0.80;;;9.40;96.00;;;;;;4988908;28;20491;-87
2023/01/15 04:54:37;;;;;;;3.50;0.70;;;9.50;95.70;;;;;;4996816;28;20468;-89
2023/01/15 04:57:13;;;;;;;1.30;0.60;;;9.50;95.60;;;;;;5009556;28;20485;-90
2023/01/15 04:59:42;;;;;;;3.90;0.90;;;9.40;95.70;;;;;;5009847;28;20572;-93
2023/01/15 05:02:12;;;;;;;0.73;0.50;;;9.40;95.90;;;;;;5016201;28;20500;-91
2023/01/15 05:04:41;;;;;;;1.70;0.67;;;9.40;96.10;;;;;;5026766;28;20497;-91
2023/01/15 05:07:11;;;;;;;3.67;0.83;;;9.40;95.80;;;;;;5027478;28;20472;-90
2023/01/15 05:09:38;;;;;;;5.53;0.87;;;9.30;96.00;;;;;;5041223;28;20449;-90
2023/01/15 05:12:08;;;;;;;2.53;0.70;;;9.20;95.80;;;;;;5008326;28;20816;-89
2023/01/15 05:14:47;;;;;;;4.13;0.70;;;9.10;96.00;;;;;;5010744;28;20465;-87
2023/01/15 05:17:14;;;;;;;1.93;0.70;;;9.10;96.30;;;;;;5009819;28;20492;-87
2023/01/15 05:19:42;;;;;;;3.23;0.70;;;8.90;96.40;;;;;;5026274;28;20461;-90
2023/01/15 05:22:12;;;;;;;1.23;0.50;;;9.00;96.70;;;;;;5009081;28;20863;-89
2023/01/15 05:24:45;;;;;;;2.87;0.50;;;9.00;96.30;;;;;;5007488;28;20515;-89
2023/01/15 05:27:12;;;;;;;3.17;0.87;;;8.90;96.40;;;;;;5006175;28;20477;-88
2023/01/15 05:29:42;;;;;;;2.67;0.80;;;8.90;96.70;;;;;;5009005;28;20505;-89
2023/01/15 05:32:09;;;;;;;1.07;0.57;;;8.90;96.70;;;;;;5006648;28;20606;-87
2023/01/15 05:34:36;;;;;;;2.57;0.70;;;9.10;96.20;;;;;;5007869;28;21186;-87
2023/01/15 05:37:06;;;;;;;2.60;0.90;;;9.10;96.00;;;;;;4989178;28;20848;-91
2023/01/15 05:39:37;;;;;;;2.87;0.60;;;9.10;96.00;;;;;;5008009;28;20493;-86
2023/01/15 05:42:07;;;;;;;2.60;1.07;;;9.00;96.10;;;;;;5007694;28;21104;-90
2023/01/15 05:44:40;;;;;;;1.57;0.50;;;8.90;96.10;;;;;;5008319;28;20533;-91
2023/01/15 05:47:09;;;;;;;4.20;0.80;;;8.90;96.00;;;;;;5003272;28;20485;-89
2023/01/15 05:49:40;;;;;;;2.03;0.77;;;9.20;95.70;;;;;;5004532;28;20457;-88
2023/01/15 05:52:13;;;;;;;1.10;0.60;;;9.50;94.30;;;;;;5018652;28;20537;-88
2023/01/15 05:54:44;;;;;;;1.57;0.60;;;9.30;93.80;;;;;;5003217;28;20465;-89
2023/01/15 05:57:26;;;;;;;2.43;0.67;;;9.10;94.10;;;;;;5004532;28;20551;-90
2023/01/15 06:00:03;;;;;;;3.33;0.83;;;9.00;94.50;;;;;;5005841;28;20544;-88
2023/01/15 06:02:55;;;;;;;3.40;0.50;;;8.90;94.70;;;;;;5014535;28;20477;-89
2023/01/15 06:05:41;;;;;;;2.37;1.00;;;8.90;94.60;;;;;;5031515;28;20520;-88
2023/01/15 06:08:42;;;;;;;3.33;1.10;;;8.90;94.80;;;;;;5018381;28;20457;-88
2023/01/15 06:11:23;;;;;;;2.63;0.60;;;8.80;95.00;;;;;;5018673;28;20497;-86
2023/01/15 06:13:51;;;;;;;3.80;1.90;;;9.10;95.30;;;;;;5014362;28;20457;-85
2023/01/15 06:16:46;;;;;;;5.00;0.97;;;9.30;95.00;;;;;;5014212;28;20501;-88
2023/01/15 06:19:29;;;;;;;4.63;0.83;;;9.30;94.80;;;;;;5012030;28;20436;-86
2023/01/15 06:22:28;;;;;;;4.73;1.47;;;9.10;95.40;;;;;;5010533;28;20572;-88
2023/01/15 06:25:25;;;;;;;3.73;1.00;;;9.10;95.90;;;;;;5010020;28;20579;-87
2023/01/15 06:28:56;;;;;;;2.67;0.60;;;9.10;96.10;;;;;;5008718;28;20468;-86
2023/01/15 06:31:52;;;;;;;3.60;0.80;;;8.80;96.30;;;;;;5007539;28;21039;-88
2023/01/15 06:34:46;;;;;;;2.67;1.13;;;8.70;97.00;;;;;;5015014;28;21220;-85
2023/01/15 06:37:24;;;;;;;3.33;0.77;;;8.70;97.10;;;;;;5013747;28;20484;-87
2023/01/15 06:39:55;;;;;;;5.03;0.80;;;8.60;97.40;;;;;;5009247;28;20460;-85
2023/01/15 06:48:07;;;;;;;1.23;0.70;;;8.80;96.60;;;;;;5039142;28;20523;-89
2023/01/15 06:50:38;;;;;;;4.67;1.37;;;8.80;96.80;;;;;;5028763;28;20480;-91
2023/01/15 06:53:22;;;;;;;3.10;0.97;;;8.90;96.20;;;;;;5024750;28;20481;-90
2023/01/15 06:55:57;;;;;;;1.20;0.60;;;8.70;96.40;;;;;;5013415;28;20454;-91
2023/01/15 06:58:35;;;;;;;0.80;0.50;;;9.00;96.30;;;;;;5028614;28;20572;-90
2023/01/15 07:01:29;;;;;;;2.83;0.70;;;8.80;96.60;;;;;;5001549;28;20461;-89
2023/01/15 07:04:12;;;;;;;2.60;0.60;;;8.70;96.90;;;;;;5009771;28;20469;-86
2023/01/15 07:06:39;;;;;;;1.00;0.50;;;8.90;96.90;;;;;;5022367;28;20493;-88
2023/01/15 07:09:18;;;;;;;1.60;1.50;;;8.80;96.80;;;;;;5011155;28;20511;-88
2023/01/15 07:11:59;;;;;;;0.50;0.50;;;8.80;96.90;;;;;;5026089;28;20471;-89
2023/01/15 07:14:30;;;;;;;0.87;0.40;;;8.60;97.80;;;;;;5037849;28;20856;-91
2023/01/15 07:17:08;;;;;;;4.37;0.60;;;8.60;97.90;;;;;;5025474;28;20476;-93
2023/01/15 07:19:38;;;;;;;0.50;0.33;;;8.60;97.80;;;;;;5019997;28;20552;-87
2023/01/15 07:22:22;;;;;;;2.47;0.80;;;8.50;98.20;;;;;;5006638;28;20485;-87
2023/01/15 07:24:56;;;;;;;3.37;0.60;;;8.50;98.30;;;;;;5020870;28;20468;-87
2023/01/15 07:27:44;;;;;;;0.73;0.53;;;8.20;98.60;;;;;;5008047;28;20481;-87
2023/01/15 07:30:15;;;;;;;2.20;0.47;;;8.20;99.10;;;;;;5003581;28;20472;-87
2023/01/15 07:32:58;;;;;;;1.17;0.60;;;8.40;98.80;;;;;;5005029;28;20454;-90
2023/01/15 07:35:35;;;;;;;0.93;0.50;;;8.40;98.60;;;;;;5006654;28;20457;-88
2023/01/15 07:38:37;;;;;;;0.73;0.30;;;8.30;98.60;;;;;;5007750;28;20488;-88
2023/01/15 07:50:23;;;;;;;0.73;0.50;;;8.30;98.90;;;;;;5021449;28;20465;-88
2023/01/15 07:52:57;;;;;;;1.37;0.80;;;8.30;99.20;;;;;;5019424;28;20456;-89
2023/01/15 07:55:36;;;;;;;2.00;0.90;;;8.50;99.10;;;;;;5003987;28;20954;-88
2023/01/15 07:58:17;;;;;;;0.97;0.67;;;8.50;98.70;;;;;;5201989;22;21779;-88
2023/01/15 08:00:51;;;;;;;1.90;0.60;;;8.60;98.60;;;;;;5006348;28;20475;-89
2023/01/15 08:03:22;;;;;;;1.50;0.70;;;8.50;98.40;;;;;;5005220;28;20485;-87
2023/01/15 08:06:01;;;;;;;2.53;0.60;;;8.40;98.50;;;;;;5006743;28;20500;-88
2023/01/15 08:08:33;;;;;;;0.90;0.60;;;8.30;99.00;;;;;;4996025;28;20473;-87
2023/01/15 08:17:06;;;;;;;0.80;0.50;;;8.30;99.40;;;;;;5010966;28;20492;-87
2023/01/15 08:20:05;;;;;;;3.10;0.70;;;8.20;99.00;;;;;;4994664;28;20552;-87
2023/01/15 08:22:49;;;;;;;1.63;0.50;;;8.10;98.50;;;;;;4996663;28;20511;-87
2023/01/15 08:25:32;;;;;;;0.50;0.40;;;8.00;98.20;;;;;;4996660;28;20489;-86
2023/01/15 08:28:07;;;;;;;0.50;0.50;;;7.90;98.90;;;;;;5004427;28;20796;-87
2023/01/15 08:30:38;;;;;;;2.20;0.50;;;7.80;99.40;;;;;;4993438;28;20469;-89
2023/01/15 08:33:18;;;;;;;0.80;0.43;;;7.90;99.90;;;;;;4995859;28;20501;-89
2023/01/15 08:35:55;;;;;;;5.07;0.83;;;8.00;98.70;;;;;;4994443;28;20472;-87
2023/01/15 08:38:25;;;;;;;0.63;0.40;;;7.90;98.60;;;;;;5011319;28;20485;-89
2023/01/15 08:41:37;;;;;;;0.40;0.40;;;7.80;99.30;;;;;;4994059;28;20567;-86
2023/01/15 08:44:22;;;;;;;2.83;0.40;;;7.60;99.40;;;;;;4996806;28;20556;-88
2023/01/15 08:47:06;;;;;;;0.50;0.50;;;7.60;99.90;;;;;;5001773;28;21717;-88
2023/01/15 08:49:42;;;;;;;0.50;0.40;;;7.80;99.90;;;;;;5098395;22;20567;-87
2023/01/15 08:52:34;;;;;;;1.47;0.50;;;7.70;99.90;;;;;;5025815;28;20524;-87
2023/01/15 08:55:10;;;;;;;2.70;0.60;;;7.50;99.90;;;;;;5041493;28;20456;-86
2023/01/15 08:57:51;;;;;;;1.63;0.50;;;7.60;99.90;;;;;;5029115;28;20488;-88
2023/01/15 09:01:05;;;;;;;1.83;0.60;;;7.70;99.90;;;;;;5005339;28;20465;-88
2023/01/15 09:04:05;;;;;;;1.30;0.90;;;8.00;99.90;;;;;;5015593;28;20904;-86
2023/01/15 09:06:47;;;;;;;0.70;0.40;;;8.10;99.90;;;;;;5027679;28;20653;-88
2023/01/15 09:09:29;;;;;;;1.83;0.60;;;8.10;99.90;;;;;;5030265;28;20461;-86
2023/01/15 09:12:08;;;;;;;2.10;0.93;;;8.00;99.90;;;;;;5028763;28;20905;-88
2023/01/15 09:14:48;;;;;;;2.40;0.80;;;8.10;99.90;;;;;;5032048;28;20451;-88
2023/01/15 09:17:22;;;;;;;1.93;0.97;;;8.10;99.90;;;;;;5031956;28;20599;-87
2023/01/15 09:20:06;;;;;;;2.00;1.03;;;8.10;99.90;;;;;;5023753;28;20664;-86
2023/01/15 09:22:37;;;;;;;1.27;1.17;;;8.00;99.90;;;;;;5023782;28;20511;-88
2023/01/15 09:25:23;;;;;;;0.93;0.90;;;7.90;99.90;;;;;;5002120;28;20474;-90
2023/01/15 09:28:01;;;;;;;1.27;0.73;;;7.90;99.90;;;;;;5030670;28;20469;-89
2023/01/15 09:30:45;;;;;;;3.80;1.30;;;8.00;99.90;;;;;;5027134;28;20596;-88
2023/01/15 09:33:19;;;;;;;4.33;0.80;;;7.80;99.90;;;;;;5026132;28;20579;-87
2023/01/15 09:35:52;;;;;;;1.10;0.70;;;7.90;99.90;;;;;;5032144;28;20457;-89
2023/01/15 09:38:27;;;;;;;1.47;1.37;;;7.90;99.90;;;;;;5032224;28;20515;-89
2023/01/15 09:42:03;;;;;;;2.20;1.20;;;8.10;99.90;;;;;;5032935;28;20506;-88
2023/01/15 09:44:50;;;;;;;0.97;0.90;;;8.20;99.90;;;;;;5031767;28;20539;-86
2023/01/15 09:47:26;;;;;;;1.07;0.97;;;8.30;99.90;;;;;;4986714;28;20524;-88
2023/01/15 09:50:22;;;;;;;2.17;1.00;;;8.30;99.70;;;;;;5028608;28;20476;-87
2023/01/15 09:54:06;;;;;;;1.70;1.07;;;8.70;99.90;;;;;;5028691;28;20572;-90
2023/01/15 09:57:23;;;;;;;2.23;0.80;;;10.70;95.30;;;;;;5004575;28;20494;-88
2023/01/15 10:00:05;;;;;;;1.53;0.97;;;11.70;92.60;;;;;;5004666;28;20556;-90
2023/01/15 10:02:51;;;;;;;2.77;0.83;;;12.40;90.20;;;;;;5029303;28;20479;-89
2023/01/15 10:05:38;;;;;;;1.00;0.60;;;12.00;89.40;;;;;;5028967;28;20527;-90
2023/01/15 10:08:09;;;;;;;4.40;1.20;;;11.60;90.60;;;;;;5030429;28;20472;-89
2023/01/15 10:11:20;;;;;;;1.60;0.90;;;11.80;90.70;;;;;;5029226;28;20444;-86
2023/01/15 10:14:08;;;;;;;1.60;0.80;;;12.60;88.60;;;;;;5031946;28;20522;-89
2023/01/15 10:16:46;;;;;;;0.93;0.77;;;12.40;87.20;;;;;;5030550;28;20520;-86
2023/01/15 10:20:29;;;;;;;;;;;;;;;;;;;;;
2023/01/15 10:23:35;;;;;;;5.90;1.33;;;11.00;89.70;;;;;;5031521;28;20485;-88
2023/01/15 10:26:31;;;;;;;2.40;1.00;;;10.70;90.60;;;;;;5131324;22;20567;-92
2023/01/15 10:29:24;;;;;;;3.50;1.07;;;10.30;91.60;;;;;;5027325;28;20476;-92
2023/01/15 10:32:20;;;;;;;5.23;1.20;;;10.10;91.50;;;;;;5011245;28;20477;-92
2023/01/15 10:35:15;;;;;;;5.90;1.30;;;10.10;91.60;;;;;;5012299;28;20442;-89
2023/01/15 10:38:14;;;;;;;3.87;0.90;;;9.90;92.70;;;;;;5005264;28;20561;-88
2023/01/15 10:41:24;;;;;;;2.73;1.00;;;10.00;91.70;;;;;;4992858;28;20457;-87
2023/01/15 10:44:29;;;;;;;9.03;2.33;;;9.80;91.90;;;;;;5007435;28;20474;-87
2023/01/15 10:47:17;;;;;;;7.90;1.33;;;9.80;92.40;;;;;;5000458;28;21256;-89
2023/01/15 10:50:00;;;;;;;2.57;0.77;;;10.00;91.80;;;;;;4990978;28;20477;-88
2023/01/15 10:52:46;;;;;;;3.63;1.97;;;9.90;92.50;;;;;;4995435;28;21411;-86
2023/01/15 10:55:42;;;;;;;2.70;1.30;;;9.80;91.90;;;;;;4994368;28;20507;-90
2023/01/15 10:58:35;;;;;;;3.60;0.90;;;10.10;90.70;;;;;;4992268;28;20490;-87
2023/01/15 11:01:18;;;;;;;5.43;1.10;;;9.90;91.20;;;;;;4994880;28;20994;-88
2023/01/15 11:04:01;;;;;;;2.93;1.30;;;9.90;91.40;;;;;;4990358;28;20589;-88
2023/01/15 11:06:31;;;;;;;3.13;2.30;;;9.80;90.70;;;;;;4989363;28;20543;-89
2023/01/15 11:09:45;;;;;;;1.47;0.77;;;9.60;91.00;;;;;;4995072;28;20462;-90
2023/01/15 11:21:45;;;;;;;5.20;1.00;;;10.00;90.80;;;;;;5009856;28;20454;-88
2023/01/15 11:24:19;;;;;;;6.80;1.07;;;10.20;90.20;;;;;;5010364;28;20466;-91
2023/01/15 11:26:58;;;;;;;3.10;0.90;;;10.10;89.60;;;;;;5011888;28;20557;-90
2023/01/15 11:29:51;;;;;;;3.67;1.10;;;10.00;88.60;;;;;;5010676;28;20446;-89
2023/01/15 11:33:12;;;;;;;1.10;0.60;;;10.00;89.30;;;;;;4996615;28;20458;-86
2023/01/15 11:39:30;;;;;;;3.27;0.77;;;10.10;88.80;;;;;;4967846;28;20537;-87
2023/01/15 11:52:11;;;;;;;0.80;0.50;;;9.80;90.40;;;;;;5015061;28;20512;-92
2023/01/15 11:55:22;;;;;;;2.80;0.90;;;9.80;90.50;;;;;;4997346;28;20470;-90
2023/01/15 11:58:11;;;;;;;3.70;1.13;;;9.90;90.20;;;;;;5000203;28;20762;-88
2023/01/15 12:00:48;;;;;;;1.67;0.67;;;9.80;90.10;;;;;;4991174;28;20478;-86
2023/01/15 12:03:24;;;;;;;1.57;0.70;;;9.70;90.20;;;;;;4991659;28;20486;-87
2023/01/15 12:06:07;;;;;;;4.00;1.20;;;9.50;90.10;;;;;;4995593;28;20519;-90
2023/01/15 12:09:04;;;;;;;3.17;0.73;;;9.50;90.60;;;;;;4999030;28;22187;-87
2023/01/15 12:11:54;;;;;;;2.63;0.80;;;9.50;90.60;;;;;;4994984;28;20517;-90
2023/01/15 12:15:13;;;;;;;2.40;1.10;;;9.50;90.70;;;;;;4970517;28;20461;-90
2023/01/15 12:18:06;;;;;;;5.50;0.93;;;9.70;90.60;;;;;;4952627;28;20593;-88
2023/01/15 12:20:39;;;;;;;2.00;1.10;;;9.50;90.40;;;;;;5009695;28;20458;-86
2023/01/15 12:23:15;;;;;;;1.43;0.93;;;9.30;90.50;;;;;;4992819;28;20521;-88
2023/01/15 12:26:08;;;;;;;3.00;0.70;;;9.30;91.00;;;;;;4995032;28;20489;-88
2023/01/15 12:28:55;;;;;;;1.67;0.73;;;9.50;91.10;;;;;;4990325;28;21408;-89
2023/01/15 12:31:42;;;;;;;2.40;0.70;;;9.50;90.80;;;;;;4995477;28;20446;-87
2023/01/15 12:34:41;;;;;;;2.50;0.77;;;9.40;90.90;;;;;;5009932;28;20466;-89
2023/01/15 12:37:25;;;;;;;1.27;0.93;;;9.40;90.90;;;;;;4960616;28;21065;-88
2023/01/15 12:40:20;;;;;;;1.53;0.93;;;9.40;90.80;;;;;;4989283;28;20470;-86
2023/01/15 12:45:53;;;;;;;2.10;0.70;;;9.60;90.90;;;;;;5009844;28;20462;-88
2023/01/15 12:48:29;;;;;;;2.33;1.33;;;9.60;90.80;;;;;;4987793;28;20482;-89
2023/01/15 12:50:59;;;;;;;5.10;0.90;;;9.70;91.00;;;;;;5002872;28;20466;-87
2023/01/15 12:53:51;;;;;;;2.60;1.10;;;9.70;90.70;;;;;;5003546;28;20467;-86
2023/01/15 12:56:27;;;;;;;3.13;1.30;;;9.60;90.50;;;;;;4986468;28;20615;-88
2023/01/15 12:59:24;;;;;;;2.60;0.80;;;9.60;90.80;;;;;;4984403;28;20457;-87
2023/01/15 13:02:03;;;;;;;1.63;0.57;;;9.70;90.50;;;;;;4985914;28;20458;-86
2023/01/15 13:04:45;;;;;;;1.80;1.10;;;9.60;90.60;;;;;;4991516;28;20512;-88
2023/01/15 13:07:53;;;;;;;1.13;1.03;;;9.60;90.60;;;;;;5005956;28;20490;-87
2023/01/15 13:10:34;;;;;;;3.87;0.70;;;9.70;90.50;;;;;;5005187;28;20488;-88
2023/01/15 13:13:35;;;;;;;2.00;0.60;;;9.70;90.30;;;;;;5004719;28;20428;-90
2023/01/15 13:16:44;;;;;;;8.43;0.97;;;9.70;90.10;;;;;;4991585;28;20549;-85
2023/01/15 13:19:54;;;;;;;3.60;0.70;;;9.80;90.10;;;;;;4993120;28;20446;-88
2023/01/15 13:26:36;;;;;;;2.47;0.50;;;9.70;90.20;;;;;;4944621;28;20488;-88
2023/01/15 13:29:40;;;;;;;5.13;2.40;;;9.70;90.20;;;;;;5007131;28;20545;-87
2023/01/15 13:36:35;;;;;;;2.07;0.80;;;9.60;90.40;;;;;;4877039;29;20460;-87
2023/01/15 13:39:04;;;;;;;5.17;0.70;;;9.70;90.00;;;;;;4876543;29;20480;-87
2023/01/15 13:44:50;;;;;;;1.50;0.70;;;9.80;89.90;;;;;;5006837;28;20489;-88
2023/01/15 13:47:25;;;;;;;3.90;0.80;;;10.00;87.70;;;;;;4987952;28;20486;-87
2023/01/15 13:50:00;;;;;;;2.53;0.70;;;10.00;87.40;;;;;;4990663;28;20481;-90
2023/01/15 13:52:32;;;;;;;2.90;0.70;;;9.80;88.20;;;;;;4990446;28;20493;-87
2023/01/15 13:55:25;;;;;;;1.50;1.40;;;9.70;88.50;;;;;;4988752;28;20484;-88
2023/01/15 13:57:56;;;;;;;3.47;0.77;;;10.00;86.90;;;;;;5008576;28;20580;-88
2023/01/15 14:00:38;;;;;;;2.20;0.90;;;9.90;88.10;;;;;;4993602;28;20485;-89
2023/01/15 14:03:28;;;;;;;2.43;1.10;;;9.90;88.30;;;;;;5007649;28;20498;-88
2023/01/15 14:06:04;;;;;;;3.07;0.80;;;10.00;86.30;;;;;;4990205;28;20458;-87
2023/01/15 14:08:41;;;;;;;1.00;0.53;;;10.10;86.40;;;;;;4992999;28;20461;-90
2023/01/15 14:11:36;;;;;;;3.23;1.10;;;10.00;86.10;;;;;;5008487;28;20557;-89
2023/01/15 14:14:18;;;;;;;4.43;0.87;;;9.90;86.80;;;;;;4983297;28;20567;-88
2023/01/15 14:17:08;;;;;;;2.00;0.70;;;9.90;87.00;;;;;;4988426;28;20484;-89
2023/01/15 14:20:12;;;;;;;1.27;1.10;;;9.70;87.60;;;;;;4988289;28;20465;-88
2023/01/15 14:23:04;;;;;;;2.00;0.67;;;9.70;87.90;;;;;;5000029;28;20508;-90
2023/01/15 14:25:49;;;;;;;2.83;0.77;;;9.60;88.20;;;;;;5004592;28;20478;-88
2023/01/15 14:28:41;;;;;;;1.37;0.70;;;9.70;87.60;;;;;;4994576;28;21003;-88
2023/01/15 14:31:33;;;;;;;2.17;0.77;;;9.70;87.50;;;;;;4997968;28;20462;-87
2023/01/15 14:34:15;;;;;;;1.37;0.70;;;9.80;87.60;;;;;;5012055;28;20442;-88
2023/01/15 14:36:48;;;;;;;3.50;0.70;;;9.70;87.30;;;;;;4993754;28;20478;-87
2023/01/15 14:39:40;;;;;;;0.60;0.50;;;9.70;87.80;;;;;;4991598;28;20568;-88
2023/01/15 14:45:05;;;;;;;1.80;0.70;;;9.90;87.00;;;;;;5008078;28;20460;-88
2023/01/15 14:47:53;;;;;;;2.90;0.77;;;9.70;87.10;;;;;;4992432;28;20521;-90
2023/01/15 14:50:47;;;;;;;1.20;0.70;;;9.60;87.80;;;;;;4999010;28;21074;-87
2023/01/15 14:53:50;;;;;;;2.03;0.80;;;9.60;88.40;;;;;;5003943;28;20461;-89
2023/01/15 14:56:40;;;;;;;2.30;0.80;;;9.70;88.40;;;;;;5009300;28;20461;-88
2023/01/15 14:59:44;;;;;;;2.00;0.50;;;9.60;88.80;;;;;;5003454;28;21171;-87
2023/01/15 15:02:22;;;;;;;2.37;0.97;;;9.60;88.90;;;;;;4995564;28;20462;-89
2023/01/15 15:05:00;;;;;;;1.90;0.87;;;9.50;88.90;;;;;;5010867;28;20481;-89
2023/01/15 15:07:51;;;;;;;3.33;0.67;;;9.40;88.90;;;;;;4998421;28;20485;-87
2023/01/15 15:10:25;;;;;;;2.90;0.87;;;9.50;89.10;;;;;;4993275;28;20544;-88
2023/01/15 15:13:07;;;;;;;1.50;0.67;;;9.50;88.90;;;;;;5006144;28;20434;-90
2023/01/15 15:15:49;;;;;;;0.80;0.60;;;9.60;88.70;;;;;;4999120;28;20465;-87
2023/01/15 15:18:25;;;;;;;3.13;1.07;;;9.90;87.90;;;;;;5008048;28;21019;-87
2023/01/15 15:20:58;;;;;;;2.60;1.17;;;9.80;87.50;;;;;;4996649;28;20550;-86
2023/01/15 15:23:41;;;;;;;2.70;1.17;;;9.70;88.30;;;;;;5009798;28;20488;-88
2023/01/15 15:26:26;;;;;;;1.63;1.20;;;9.50;89.20;;;;;;4995143;28;20477;-89
2023/01/15 15:29:12;;;;;;;3.80;0.77;;;9.60;89.60;;;;;;4994901;28;20485;-87
2023/01/15 15:31:46;;;;;;;1.43;0.80;;;9.70;89.60;;;;;;5004741;28;20452;-88
2023/01/15 15:34:28;;;;;;;2.40;1.00;;;9.90;88.00;;;;;;5024567;28;20448;-92
2023/01/15 15:36:57;;;;;;;2.43;0.80;;;9.70;88.30;;;;;;5006749;28;20497;-91
2023/01/15 15:39:47;;;;;;;4.03;0.80;;;9.50;90.00;;;;;;5004163;28;20530;-87
2023/01/15 15:51:22;;;;;;;2.00;1.07;;;9.50;90.60;;;;;;5006709;28;20458;-89
2023/01/15 15:53:49;;;;;;;1.03;0.77;;;9.40;91.10;;;;;;5006788;28;20462;-88